createdAt,value
2019-03-29T00:02:05.326Z,26.75
2019-03-29T00:04:38.642Z,28.40
2019-03-29T00:09:43.414Z,27.95
2019-03-29T00:14:48.043Z,25.25
2019-03-29T00:17:21.783Z,26.00
2019-03-29T00:19:54.906Z,23.38
2019-03-29T00:24:59.325Z,22.90
2019-03-29T00:30:03.935Z,24.98
2019-03-29T00:35:08.596Z,26.00
2019-03-29T00:37:53.008Z,24.23
2019-03-29T00:40:16.677Z,28.77
2019-03-29T00:42:50.020Z,22.52
2019-03-29T00:47:54.375Z,21.93
2019-03-29T00:50:27.559Z,20.57
2019-03-29T00:55:32.341Z,30.62
2019-03-29T00:58:05.637Z,28.25
2019-03-29T01:00:38.651Z,22.87
2019-03-29T01:03:11.706Z,24.27
2019-03-29T01:05:44.762Z,25.88
2019-03-29T01:08:18.035Z,27.40
2019-03-29T01:10:51.155Z,30.10
2019-03-29T01:15:55.761Z,22.45
2019-03-29T01:18:28.715Z,22.58
2019-03-29T01:21:02.100Z,17.52
2019-03-29T01:23:35.293Z,16.17
2019-03-29T01:26:08.626Z,20.55
2019-03-29T01:28:41.804Z,15.48
2019-03-29T01:33:46.396Z,23.40
2019-03-29T01:36:19.618Z,17.73
2019-03-29T01:38:52.917Z,20.32
2019-03-29T01:43:57.223Z,18.73
2019-03-29T01:46:30.246Z,18.25
2019-03-29T01:49:03.553Z,17.57
2019-03-29T01:51:36.717Z,24.85
2019-03-29T01:56:41.435Z,17.42
2019-03-29T02:01:46.040Z,19.87
2019-03-29T02:04:19.056Z,15.35
2019-03-29T02:06:51.514Z,18.85
2019-03-29T02:09:24.881Z,20.68
2019-03-29T02:11:57.982Z,19.45
2019-03-29T02:17:02.307Z,15.13
2019-03-29T02:19:35.367Z,20.55
2019-03-29T02:22:09.014Z,19.77
2019-03-29T02:24:42.238Z,18.07
2019-03-29T02:27:15.303Z,15.65
2019-03-29T02:29:48.230Z,18.80
2019-03-29T02:32:21.050Z,22.75
2019-03-29T02:34:54.179Z,20.88
2019-03-29T02:37:28.638Z,22.45
2019-03-29T02:40:02.202Z,17.85
2019-03-29T02:42:35.673Z,19.45
2019-03-29T02:45:08.973Z,16.30
2019-03-29T02:50:13.705Z,17.55
2019-03-29T02:52:46.815Z,20.60
2019-03-29T02:55:20.839Z,13.80
2019-03-29T02:57:54.255Z,16.67
2019-03-29T03:00:27.560Z,15.55
2019-03-29T03:03:00.935Z,17.05
2019-03-29T03:05:33.982Z,16.07
2019-03-29T03:08:06.948Z,17.92
2019-03-29T03:10:40.267Z,15.70
2019-03-29T03:13:13.279Z,15.18
2019-03-29T03:15:46.637Z,18.77
2019-03-29T03:18:19.505Z,21.07
2019-03-29T03:20:52.585Z,21.45
2019-03-29T03:25:56.816Z,18.90
2019-03-29T03:28:29.874Z,16.73
2019-03-29T03:31:03.051Z,16.62
2019-03-29T03:33:37.035Z,16.87
2019-03-29T03:36:10.356Z,16.42
2019-03-29T03:38:43.362Z,12.40
2019-03-29T03:41:16.588Z,16.15
2019-03-29T03:46:21.075Z,14.87
2019-03-29T03:48:54.681Z,15.58
2019-03-29T03:51:27.669Z,19.25
2019-03-29T03:54:01.280Z,15.78
2019-03-29T03:56:35.972Z,17.57
2019-03-29T03:59:09.328Z,17.30
2019-03-29T04:01:42.406Z,13.50
2019-03-29T04:06:47.172Z,12.93
2019-03-29T04:09:20.683Z,12.98
2019-03-29T04:11:53.733Z,22.40
2019-03-29T04:14:27.001Z,20.25
2019-03-29T04:17:00.275Z,23.92
2019-03-29T04:19:33.209Z,21.75
2019-03-29T04:22:06.655Z,15.05
2019-03-29T04:24:39.792Z,15.30
2019-03-29T04:29:45.020Z,13.45
2019-03-29T04:32:18.898Z,17.15
2019-03-29T04:34:52.496Z,19.02
2019-03-29T04:37:26.674Z,22.77
2019-03-29T04:40:07.851Z,16.27
2019-03-29T04:42:35.636Z,13.08
2019-03-29T04:45:09.510Z,19.50
2019-03-29T04:47:42.648Z,23.15
2019-03-29T04:50:16.377Z,22.50
2019-03-29T04:52:49.405Z,31.15
2019-03-29T04:55:22.477Z,39.00
2019-03-29T04:57:55.829Z,39.13
2019-03-29T05:00:29.093Z,25.23
2019-03-29T05:03:02.165Z,19.73
2019-03-29T05:05:35.787Z,17.82
2019-03-29T05:08:09.182Z,17.98
2019-03-29T05:10:43.497Z,21.10
2019-03-29T05:13:16.866Z,31.30
2019-03-29T05:15:51.111Z,24.10
2019-03-29T05:20:55.255Z,22.32
2019-03-29T05:23:29.494Z,25.43
2019-03-29T05:28:34.089Z,22.02
2019-03-29T05:31:07.172Z,23.55
2019-03-29T05:33:40.274Z,30.77
2019-03-29T05:36:13.478Z,34.85
2019-03-29T05:41:17.758Z,25.32
2019-03-29T05:43:51.296Z,20.40
2019-03-29T05:46:24.353Z,20.65
2019-03-29T05:48:57.281Z,21.77
2019-03-29T05:51:30.691Z,27.02
2019-03-29T05:54:03.777Z,24.87
2019-03-29T05:56:37.800Z,24.85
2019-03-29T05:59:10.817Z,28.30
2019-03-29T06:01:44.142Z,29.40
2019-03-29T06:06:48.325Z,30.20
2019-03-29T06:09:22.326Z,26.60
2019-03-29T06:11:55.784Z,21.80
2019-03-29T06:14:28.916Z,32.88
2019-03-29T06:17:02.162Z,35.83
2019-03-29T06:19:35.606Z,30.45
2019-03-29T06:24:40.295Z,26.55
2019-03-29T06:27:14.362Z,22.90
2019-03-29T06:29:47.590Z,31.10
2019-03-29T06:32:21.012Z,28.23
2019-03-29T06:34:54.410Z,22.25
2019-03-29T06:37:28.916Z,28.67
2019-03-29T06:40:03.171Z,34.88
2019-03-29T06:42:36.316Z,26.55
2019-03-29T06:45:10.044Z,22.27
2019-03-29T06:47:43.472Z,29.00
2019-03-29T06:50:16.601Z,24.70
2019-03-29T06:52:49.754Z,26.37
2019-03-29T06:57:54.392Z,23.50
2019-03-29T07:00:27.522Z,24.65
2019-03-29T07:05:32.298Z,26.42
2019-03-29T07:08:05.593Z,16.93
2019-03-29T07:10:38.730Z,17.77
2019-03-29T07:13:12.010Z,8.58
2019-03-29T07:18:16.094Z,12.40
2019-03-29T07:20:49.159Z,12.15
2019-03-29T07:23:22.589Z,10.45
2019-03-29T07:25:56.552Z,13.70
2019-03-29T07:28:30.623Z,14.73
2019-03-29T07:31:03.530Z,14.75
2019-03-29T07:33:36.776Z,17.60
2019-03-29T07:36:09.695Z,26.40
2019-03-29T07:38:43.120Z,13.15
2019-03-29T07:41:30.667Z,24.27
2019-03-29T07:43:53.111Z,13.32
2019-03-29T07:46:26.523Z,11.10
2019-03-29T07:49:00.140Z,16.95
2019-03-29T07:51:33.613Z,15.40
2019-03-29T07:54:07.122Z,14.28
2019-03-29T07:56:40.334Z,11.50
2019-03-29T07:59:13.760Z,23.75
2019-03-29T08:01:47.081Z,18.48
2019-03-29T08:04:21.816Z,28.12
2019-03-29T08:06:54.960Z,23.42
2019-03-29T08:09:28.692Z,11.00
2019-03-29T08:12:01.618Z,17.73
2019-03-29T08:14:36.133Z,20.48
2019-03-29T08:17:09.468Z,36.48
2019-03-29T08:19:42.989Z,29.18
2019-03-29T08:22:16.498Z,47.00
2019-03-29T08:24:49.684Z,14.78
2019-03-29T08:29:54.425Z,14.10
2019-03-29T08:32:28.025Z,13.43
2019-03-29T08:35:03.928Z,12.98
2019-03-29T08:37:36.966Z,13.65
2019-03-29T08:42:41.982Z,13.88
2019-03-29T08:47:46.221Z,13.85
2019-03-29T08:50:19.685Z,23.45
2019-03-29T08:52:53.391Z,12.33
2019-03-29T08:55:26.601Z,12.60
2019-03-29T08:58:00.087Z,10.55
2019-03-29T09:00:36.754Z,9.83
2019-03-29T09:03:09.816Z,9.73
2019-03-29T09:05:43.843Z,10.30
2019-03-29T09:08:17.193Z,11.08
2019-03-29T09:10:50.590Z,14.07
2019-03-29T09:13:24.073Z,16.17
2019-03-29T09:15:57.308Z,13.15
2019-03-29T09:21:02.162Z,14.10
2019-03-29T09:23:35.622Z,12.90
2019-03-29T09:26:08.648Z,14.10
2019-03-29T09:28:42.057Z,14.80
2019-03-29T09:31:15.915Z,14.30
2019-03-29T09:33:48.820Z,13.40
2019-03-29T09:36:21.361Z,9.60
2019-03-29T09:38:54.270Z,9.43
2019-03-29T09:41:27.393Z,11.80
2019-03-29T09:46:31.312Z,13.43
2019-03-29T09:51:36.296Z,13.50
2019-03-29T09:54:10.388Z,9.18
2019-03-29T09:56:43.678Z,39.80
2019-03-29T09:59:16.772Z,33.65
2019-03-29T10:04:21.580Z,21.77
2019-03-29T10:06:54.859Z,29.92
2019-03-29T10:11:59.818Z,13.38
2019-03-29T10:17:06.149Z,39.53
2019-03-29T10:19:38.631Z,23.60
2019-03-29T10:22:11.568Z,10.88
2019-03-29T10:24:47.432Z,20.65
2019-03-29T10:27:20.459Z,10.20
2019-03-29T10:29:53.609Z,9.78
2019-03-29T10:32:26.751Z,9.73
2019-03-29T10:37:30.665Z,14.63
2019-03-29T10:40:03.875Z,19.25
2019-03-29T10:42:40.097Z,11.93
2019-03-29T10:45:13.558Z,14.78
2019-03-29T10:47:46.737Z,21.00
2019-03-29T10:52:51.402Z,20.60
2019-03-29T10:55:24.709Z,12.60
2019-03-29T11:00:40.034Z,14.87
2019-03-29T11:03:13.850Z,16.48
2019-03-29T11:05:47.219Z,23.32
2019-03-29T11:08:20.626Z,17.75
2019-03-29T11:10:53.712Z,16.45
2019-03-29T11:13:26.555Z,35.23
2019-03-29T11:15:59.324Z,15.45
2019-03-29T11:18:32.254Z,15.40
2019-03-29T11:21:05.934Z,17.10
2019-03-29T11:23:38.904Z,11.70
2019-03-29T11:26:12.091Z,19.57
2019-03-29T11:31:16.619Z,24.50
2019-03-29T11:36:21.344Z,35.98
2019-03-29T11:38:54.989Z,12.63
2019-03-29T11:41:28.274Z,14.03
2019-03-29T11:46:33.013Z,42.65
2019-03-29T11:49:07.097Z,23.35
2019-03-29T11:51:40.299Z,17.95
2019-03-29T11:56:47.684Z,20.17
2019-03-29T11:59:20.123Z,33.53
2019-03-29T12:04:26.202Z,11.57
2019-03-29T12:06:59.633Z,13.50
2019-03-29T12:09:32.811Z,29.72
2019-03-29T12:14:37.306Z,15.20
2019-03-29T12:17:10.654Z,13.58
2019-03-29T12:19:43.611Z,12.88
2019-03-29T12:22:16.991Z,19.40
2019-03-29T12:24:50.082Z,15.93
2019-03-29T12:29:54.897Z,13.60
2019-03-29T12:32:28.152Z,16.12
2019-03-29T12:37:33.012Z,26.60
2019-03-29T12:40:06.502Z,7.92
2019-03-29T12:42:39.664Z,11.50
2019-03-29T12:47:44.669Z,15.75
2019-03-29T12:50:17.726Z,15.98
2019-03-29T12:52:50.743Z,14.00
2019-03-29T12:55:23.908Z,14.75
2019-03-29T12:57:57.294Z,19.00
2019-03-29T13:00:30.602Z,22.15
2019-03-29T13:03:03.714Z,20.12
2019-03-29T13:08:08.406Z,16.52
2019-03-29T13:13:14.838Z,15.45
2019-03-29T13:15:48.087Z,25.55
2019-03-29T13:18:21.306Z,16.25
2019-03-29T13:20:54.643Z,18.12
2019-03-29T13:23:27.953Z,19.25
2019-03-29T13:26:01.030Z,18.10
2019-03-29T13:28:34.456Z,21.90
2019-03-29T13:31:07.755Z,19.75
2019-03-29T13:33:41.145Z,20.25
2019-03-29T13:36:15.274Z,14.60
2019-03-29T13:38:48.517Z,17.35
2019-03-29T13:43:53.532Z,21.87
2019-03-29T13:46:26.718Z,26.00
2019-03-29T13:51:31.366Z,16.17
2019-03-29T13:54:04.360Z,20.45
2019-03-29T13:56:37.591Z,25.40
2019-03-29T13:59:11.584Z,22.37
2019-03-29T14:01:44.836Z,21.02
2019-03-29T14:06:49.539Z,18.00
2019-03-29T14:09:22.158Z,24.18
2019-03-29T14:11:55.604Z,14.53
2019-03-29T14:14:38.204Z,30.20
2019-03-29T14:17:03.850Z,19.85
2019-03-29T14:19:36.766Z,18.57
2019-03-29T14:22:10.116Z,20.75
2019-03-29T14:27:14.575Z,19.48
2019-03-29T14:29:49.002Z,19.60
2019-03-29T14:32:22.137Z,21.05
2019-03-29T14:34:54.756Z,17.48
2019-03-29T14:37:28.000Z,18.23
2019-03-29T14:40:01.191Z,22.93
2019-03-29T14:42:34.304Z,24.65
2019-03-29T14:47:43.225Z,25.97
2019-03-29T14:50:14.552Z,21.48
2019-03-29T14:52:47.728Z,29.63
2019-03-29T14:57:52.319Z,28.65
2019-03-29T15:03:09.897Z,23.60
2019-03-29T15:05:43.303Z,25.68
2019-03-29T15:08:16.396Z,27.27
2019-03-29T15:13:20.871Z,24.67
2019-03-29T15:15:54.241Z,19.62
2019-03-29T15:18:27.289Z,23.25
2019-03-29T15:21:00.867Z,26.70
2019-03-29T15:23:34.273Z,19.15
2019-03-29T15:26:07.402Z,27.82
2019-03-29T15:28:40.848Z,24.27
2019-03-29T15:31:13.499Z,18.37
2019-03-29T15:33:46.590Z,16.52
2019-03-29T15:36:19.709Z,21.37
2019-03-29T15:38:54.495Z,21.12
2019-03-29T15:41:27.813Z,14.75
2019-03-29T15:44:01.252Z,13.98
2019-03-29T15:46:34.401Z,23.47
2019-03-29T15:49:07.625Z,19.80
2019-03-29T15:51:40.582Z,17.45
2019-03-29T15:54:14.156Z,13.08
2019-03-29T15:56:47.529Z,30.50
2019-03-29T15:59:20.132Z,19.02
2019-03-29T16:01:53.451Z,14.23
2019-03-29T16:04:26.874Z,18.87
2019-03-29T16:09:31.366Z,15.53
2019-03-29T16:12:04.291Z,14.35
2019-03-29T16:14:37.477Z,18.37
2019-03-29T16:17:10.736Z,15.95
2019-03-29T16:19:43.777Z,13.18
2019-03-29T16:22:17.065Z,17.00
2019-03-29T16:27:24.859Z,21.45
2019-03-29T16:29:56.635Z,20.25
2019-03-29T16:32:30.186Z,25.55
2019-03-29T16:35:03.614Z,16.65
2019-03-29T16:37:36.648Z,15.78
2019-03-29T16:40:10.326Z,15.88
2019-03-29T16:42:43.754Z,26.17
2019-03-29T16:45:17.037Z,17.02
2019-03-29T16:50:21.330Z,21.23
2019-03-29T16:52:54.381Z,15.80
2019-03-29T16:55:27.700Z,20.45
2019-03-29T16:58:01.194Z,25.57
2019-03-29T17:00:34.426Z,31.77
2019-03-29T17:03:07.812Z,25.88
2019-03-29T17:08:13.453Z,21.62
2019-03-29T17:10:47.074Z,37.23
2019-03-29T17:13:20.591Z,18.67
2019-03-29T17:16:01.500Z,24.67
2019-03-29T17:18:29.993Z,31.60
2019-03-29T17:21:03.539Z,31.90
2019-03-29T17:23:36.384Z,44.40
2019-03-29T17:26:09.889Z,31.42
2019-03-29T17:28:42.885Z,37.65
2019-03-29T17:31:16.787Z,40.15
2019-03-29T17:33:49.996Z,34.58
2019-03-29T17:36:23.245Z,48.95
2019-03-29T17:38:56.323Z,45.58
2019-03-29T17:41:29.587Z,59.77
2019-03-29T17:46:33.768Z,205.27
2019-03-29T17:49:07.921Z,85.60
2019-03-29T17:51:41.079Z,92.35
2019-03-29T17:56:46.004Z,207.95
2019-03-29T18:01:50.689Z,213.80
2019-03-29T18:04:23.679Z,145.28
2019-03-29T18:06:57.767Z,147.70
2019-03-29T18:09:30.978Z,140.65
2019-03-29T18:12:04.444Z,146.43
2019-03-29T18:14:37.592Z,152.45
2019-03-29T18:17:11.035Z,151.70
2019-03-29T18:19:44.383Z,143.05
2019-03-29T18:22:17.202Z,79.87
2019-03-29T18:24:50.224Z,100.18
2019-03-29T18:27:23.458Z,95.38
2019-03-29T18:32:28.342Z,74.05
2019-03-29T18:35:01.744Z,77.92
2019-03-29T18:37:35.388Z,81.00
2019-03-29T18:40:10.212Z,84.77
2019-03-29T18:42:43.457Z,68.57
2019-03-29T18:47:48.470Z,187.47
2019-03-29T18:50:21.649Z,153.95
2019-03-29T18:52:54.965Z,191.32
2019-03-29T18:57:59.230Z,196.80
2019-03-29T19:00:33.920Z,168.02
2019-03-29T19:03:07.700Z,139.57
2019-03-29T19:05:41.131Z,161.45
2019-03-29T19:08:14.038Z,332.12
2019-03-29T19:10:47.327Z,354.90
2019-03-29T19:13:20.518Z,321.30
2019-03-29T19:18:24.958Z,144.95
2019-03-29T19:20:58.242Z,102.45
2019-03-29T19:26:02.606Z,98.58
2019-03-29T19:28:35.899Z,73.67
2019-03-29T19:33:40.949Z,95.87
2019-03-29T19:36:14.134Z,90.17
2019-03-29T19:38:48.530Z,85.53
2019-03-29T19:41:22.040Z,78.72
2019-03-29T19:43:55.985Z,85.90
2019-03-29T19:46:29.332Z,83.62
2019-03-29T19:49:02.556Z,78.75
2019-03-29T19:54:08.034Z,85.62
2019-03-29T19:56:41.579Z,99.30
2019-03-29T19:59:14.668Z,106.27
2019-03-29T20:01:47.959Z,132.78
2019-03-29T20:04:20.415Z,147.75
2019-03-29T20:06:53.743Z,174.85
2019-03-29T20:11:58.432Z,65.25
2019-03-29T20:17:03.024Z,33.45
2019-03-29T20:19:36.210Z,65.50
2019-03-29T20:22:09.480Z,84.47
2019-03-29T20:27:13.983Z,72.05
2019-03-29T20:29:47.050Z,97.65
2019-03-29T20:32:20.229Z,145.60
2019-03-29T20:37:25.157Z,126.25
2019-03-29T20:42:29.779Z,140.55
2019-03-29T20:47:41.868Z,131.47
2019-03-29T20:50:09.432Z,134.18
2019-03-29T20:52:42.721Z,136.00
2019-03-29T20:57:47.213Z,118.45
2019-03-29T21:02:53.110Z,127.07
2019-03-29T21:05:26.482Z,116.57
2019-03-29T21:08:00.699Z,115.47
2019-03-29T21:10:34.083Z,96.28
2019-03-29T21:15:40.054Z,68.52
2019-03-29T21:18:13.031Z,89.65
2019-03-29T21:20:46.518Z,138.92
2019-03-29T21:23:19.550Z,160.07
2019-03-29T21:25:52.952Z,84.85
2019-03-29T21:28:26.465Z,93.27
2019-03-29T21:30:59.617Z,99.32
2019-03-29T21:33:32.904Z,81.15
2019-03-29T21:36:05.976Z,75.62
2019-03-29T21:38:39.344Z,64.00
2019-03-29T21:41:13.028Z,65.10
2019-03-29T21:43:46.203Z,53.25
2019-03-29T21:46:19.679Z,73.90
2019-03-29T21:48:52.679Z,74.12
2019-03-29T21:51:26.323Z,68.67
2019-03-29T21:53:59.189Z,80.65
2019-03-29T21:56:33.386Z,65.03
2019-03-29T21:59:06.527Z,62.53
2019-03-29T22:04:11.163Z,53.48
2019-03-29T22:06:44.394Z,53.95
2019-03-29T22:09:17.474Z,63.23
2019-03-29T22:11:50.441Z,48.52
2019-03-29T22:14:23.489Z,52.85
2019-03-29T22:16:56.625Z,38.65
2019-03-29T22:19:30.026Z,45.80
2019-03-29T22:22:03.470Z,46.15
2019-03-29T22:24:36.998Z,37.78
2019-03-29T22:27:10.360Z,35.92
2019-03-29T22:32:46.497Z,31.62
2019-03-29T22:35:21.044Z,35.05
2019-03-29T22:37:54.642Z,40.00
2019-03-29T22:40:27.642Z,36.20
2019-03-29T22:43:00.920Z,42.73
2019-03-29T22:45:33.924Z,46.30
2019-03-29T22:48:07.150Z,38.20
2019-03-29T22:53:11.750Z,34.92
2019-03-29T22:58:22.588Z,34.78
2019-03-29T23:01:00.030Z,36.65
2019-03-29T23:03:33.195Z,31.07
2019-03-29T23:06:06.377Z,33.15
2019-03-29T23:08:39.398Z,32.48
2019-03-29T23:11:14.140Z,35.28
2019-03-29T23:13:47.309Z,35.50
2019-03-29T23:16:20.701Z,36.23
2019-03-29T23:19:05.793Z,36.10
2019-03-29T23:21:29.733Z,40.83
2019-03-29T23:24:02.096Z,42.20
2019-03-29T23:26:35.273Z,42.43
2019-03-29T23:29:08.819Z,40.40
2019-03-29T23:31:41.508Z,61.77
2019-03-29T23:34:15.060Z,43.65
2019-03-29T23:36:48.250Z,73.97
2019-03-29T23:39:21.708Z,42.60
2019-03-29T23:41:54.844Z,38.48
2019-03-29T23:44:27.995Z,35.38
2019-03-29T23:47:01.125Z,36.55
2019-03-29T23:49:34.162Z,27.42
2019-03-29T23:52:07.503Z,35.50
2019-03-29T23:54:40.051Z,32.40
2019-03-29T23:57:13.081Z,28.98
2019-03-29T23:59:46.327Z,28.87
